TimeEST,TemperatureF,Dew PointF,Humidity,Sea Level PressureIn,VisibilityMPH,Wind Direction,Wind SpeedMPH,Gust SpeedMPH,PrecipitationIn,Events,Conditions,WindDirDegrees,DateUTC
12:15 AM,28.4,19.4,69,30.21,10.0,NNE,9.2,-,N/A,,Overcast,30,2013-03-08 05:15:00
12:35 AM,28.4,17.6,64,30.21,10.0,NNE,8.1,-,N/A,,Overcast,30,2013-03-08 05:35:00
12:55 AM,26.6,17.6,69,30.20,10.0,NNE,10.4,-,N/A,,Overcast,30,2013-03-08 05:55:00
1:15 AM,26.6,17.6,69,30.20,10.0,NNE,11.5,-,N/A,,Overcast,20,2013-03-08 06:15:00
1:35 AM,26.6,17.6,69,30.20,10.0,NNE,10.4,-,N/A,,Mostly Cloudy,20,2013-03-08 06:35:00
1:55 AM,26.6,17.6,69,30.19,10.0,North,10.4,-,N/A,,Overcast,10,2013-03-08 06:55:00
2:15 AM,24.8,17.6,74,30.19,10.0,North,11.5,-,N/A,,Mostly Cloudy,10,2013-03-08 07:15:00
2:35 AM,24.8,17.6,74,30.19,10.0,North,9.2,-,N/A,,Scattered Clouds,10,2013-03-08 07:35:00
2:55 AM,24.8,17.6,74,30.18,10.0,North,12.7,17.3,N/A,,Partly Cloudy,10,2013-03-08 07:55:00
3:15 AM,24.8,17.6,74,30.18,10.0,North,12.7,-,N/A,,Clear,10,2013-03-08 08:15:00
3:35 AM,24.8,17.6,74,30.18,10.0,North,11.5,-,N/A,,Clear,10,2013-03-08 08:35:00
3:55 AM,24.8,17.6,74,30.18,10.0,North,13.8,18.4,N/A,,Clear,10,2013-03-08 08:55:00
4:15 AM,24.8,17.6,74,30.18,10.0,North,11.5,-,N/A,,Clear,10,2013-03-08 09:15:00
4:35 AM,23.0,17.6,80,30.18,10.0,North,12.7,-,N/A,,Clear,10,2013-03-08 09:35:00
4:55 AM,23.0,17.6,80,30.18,10.0,North,12.7,-,N/A,,Clear,360,2013-03-08 09:55:00
5:15 AM,23.0,17.6,80,30.19,10.0,North,11.5,-,N/A,,Clear,10,2013-03-08 10:15:00
5:35 AM,23.0,17.6,80,30.19,10.0,North,11.5,-,N/A,,Clear,10,2013-03-08 10:35:00
5:55 AM,23.0,17.6,80,30.19,10.0,North,11.5,-,N/A,,Clear,10,2013-03-08 10:55:00
6:15 AM,23.0,17.6,80,30.20,10.0,North,11.5,-,N/A,,Clear,10,2013-03-08 11:15:00
6:35 AM,23.0,17.6,80,30.21,10.0,North,10.4,-,N/A,,Clear,10,2013-03-08 11:35:00
6:55 AM,24.8,17.6,74,30.21,10.0,North,11.5,-,N/A,,Clear,10,2013-03-08 11:55:00
7:15 AM,24.8,17.6,74,30.22,10.0,North,10.4,-,N/A,,Clear,10,2013-03-08 12:15:00
7:35 AM,24.8,17.6,74,30.23,10.0,NNE,9.2,-,N/A,,Clear,20,2013-03-08 12:35:00
7:55 AM,26.6,19.4,74,30.22,10.0,North,10.4,-,N/A,,Clear,10,2013-03-08 12:55:00
8:15 AM,26.6,19.4,74,30.23,10.0,North,10.4,-,N/A,,Clear,10,2013-03-08 13:15:00
8:35 AM,28.4,19.4,69,30.22,9.0,NNE,10.4,-,N/A,,Clear,20,2013-03-08 13:35:00
8:55 AM,28.4,19.4,69,30.23,10.0,NNE,13.8,20.7,N/A,,Clear,20,2013-03-08 13:55:00
9:15 AM,28.4,19.4,69,30.23,10.0,NNE,12.7,-,N/A,,Clear,30,2013-03-08 14:15:00
9:35 AM,30.2,19.4,64,30.23,10.0,NNE,15.0,20.7,N/A,,Clear,20,2013-03-08 14:35:00
9:55 AM,30.2,19.4,64,30.23,10.0,NNE,11.5,-,N/A,,Clear,30,2013-03-08 14:55:00
10:15 AM,30.2,19.4,64,30.23,10.0,NNE,10.4,-,N/A,,Clear,30,2013-03-08 15:15:00
10:35 AM,32.0,19.4,60,30.23,10.0,North,13.8,19.6,N/A,,Clear,10,2013-03-08 15:35:00
10:55 AM,33.8,19.4,56,30.23,10.0,NNE,10.4,-,N/A,,Clear,20,2013-03-08 15:55:00
11:15 AM,33.8,19.4,56,30.23,10.0,North,12.7,-,N/A,,Clear,10,2013-03-08 16:15:00
11:35 AM,35.6,19.4,52,30.22,10.0,NNE,11.5,18.4,N/A,,Clear,20,2013-03-08 16:35:00
11:55 AM,35.6,19.4,52,30.22,10.0,North,12.7,-,N/A,,Clear,10,2013-03-08 16:55:00
12:15 PM,35.6,19.4,52,30.21,10.0,North,16.1,-,N/A,,Clear,360,2013-03-08 17:15:00
12:35 PM,37.4,19.4,48,30.20,10.0,North,15.0,-,N/A,,Clear,360,2013-03-08 17:35:00
12:55 PM,37.4,19.4,48,30.20,10.0,North,16.1,21.9,N/A,,Clear,10,2013-03-08 17:55:00
1:15 PM,37.4,19.4,48,30.19,10.0,North,13.8,-,N/A,,Clear,360,2013-03-08 18:15:00
1:35 PM,39.2,21.2,49,30.19,10.0,North,12.7,18.4,N/A,,Clear,10,2013-03-08 18:35:00
1:55 PM,39.2,19.4,45,30.19,10.0,North,16.1,-,N/A,,Clear,10,2013-03-08 18:55:00
2:15 PM,39.2,19.4,45,30.19,10.0,North,16.1,-,N/A,,Clear,10,2013-03-08 19:15:00
2:35 PM,39.2,19.4,45,30.20,10.0,North,12.7,19.6,N/A,,Clear,10,2013-03-08 19:35:00
2:55 PM,39.2,19.4,45,30.20,10.0,North,13.8,20.7,N/A,,Clear,10,2013-03-08 19:55:00
3:15 PM,39.2,19.4,45,30.20,10.0,NNE,12.7,21.9,N/A,,Clear,20,2013-03-08 20:15:00
3:35 PM,39.2,19.4,45,30.20,10.0,NNE,17.3,-,N/A,,Clear,20,2013-03-08 20:35:00
3:55 PM,39.2,19.4,45,30.21,10.0,NNE,13.8,-,N/A,,Clear,30,2013-03-08 20:55:00
4:15 PM,39.2,21.2,49,30.21,10.0,NNE,15.0,-,N/A,,Clear,20,2013-03-08 21:15:00
4:35 PM,37.4,21.2,52,30.21,10.0,North,12.7,19.6,N/A,,Clear,10,2013-03-08 21:35:00
4:55 PM,37.4,19.4,48,30.22,10.0,North,13.8,-,N/A,,Clear,10,2013-03-08 21:55:00
5:15 PM,37.4,21.2,52,30.22,10.0,North,12.7,-,N/A,,Clear,10,2013-03-08 22:15:00
5:35 PM,35.6,21.2,56,30.22,10.0,NNE,11.5,-,N/A,,Clear,20,2013-03-08 22:35:00
5:55 PM,35.6,21.2,56,30.23,10.0,North,11.5,-,N/A,,Clear,10,2013-03-08 22:55:00
6:15 PM,35.6,21.2,56,30.23,10.0,North,11.5,-,N/A,,Clear,10,2013-03-08 23:15:00
6:35 PM,33.8,21.2,60,30.24,10.0,NNE,10.4,-,N/A,,Clear,30,2013-03-08 23:35:00
6:55 PM,33.8,21.2,60,30.24,10.0,NNE,9.2,-,N/A,,Clear,30,2013-03-08 23:55:00
7:15 PM,33.8,21.2,60,30.24,10.0,NNE,8.1,-,N/A,,Clear,30,2013-03-09 00:15:00
7:35 PM,32.0,21.2,64,30.24,10.0,NNE,8.1,-,N/A,,Clear,30,2013-03-09 00:35:00
7:55 PM,30.2,19.4,64,30.24,10.0,NNE,8.1,-,N/A,,Clear,30,2013-03-09 00:55:00
8:15 PM,30.2,19.4,64,30.25,10.0,North,8.1,-,N/A,,Clear,360,2013-03-09 01:15:00
8:35 PM,30.2,19.4,64,30.25,10.0,North,9.2,-,N/A,,Clear,10,2013-03-09 01:35:00
8:55 PM,28.4,19.4,69,30.26,10.0,North,9.2,-,N/A,,Clear,360,2013-03-09 01:55:00
9:15 PM,28.4,19.4,69,30.26,10.0,North,8.1,-,N/A,,Clear,360,2013-03-09 02:15:00
9:35 PM,28.4,19.4,69,30.26,10.0,North,8.1,-,N/A,,Clear,360,2013-03-09 02:35:00
9:55 PM,28.4,19.4,69,30.25,10.0,North,9.2,-,N/A,,Clear,360,2013-03-09 02:55:00
10:15 PM,28.4,19.4,69,30.25,10.0,North,8.1,-,N/A,,Clear,10,2013-03-09 03:15:00
10:35 PM,28.4,19.4,69,30.25,10.0,North,8.1,-,N/A,,Clear,360,2013-03-09 03:35:00
10:55 PM,28.4,19.4,69,30.24,10.0,North,8.1,-,N/A,,Clear,10,2013-03-09 03:55:00
11:35 PM,26.6,19.4,74,30.23,10.0,North,9.2,-,N/A,,Clear,10,2013-03-09 04:35:00
11:55 PM,26.6,19.4,74,30.23,10.0,North,11.5,-,N/A,,Clear,360,2013-03-09 04:55:00